createdAt,value
2023-07-04T00:01:53.274Z,16.75
2023-07-04T00:04:25.351Z,12.73
2023-07-04T00:06:54.703Z,14.15
2023-07-04T00:09:22.198Z,11.23
2023-07-04T00:11:51.500Z,18.17
2023-07-04T00:14:19.128Z,15.18
2023-07-04T00:16:48.437Z,15.68
2023-07-04T00:19:16.112Z,15.90
2023-07-04T00:21:43.475Z,20.75
2023-07-04T00:24:14.009Z,13.77
2023-07-04T00:26:41.314Z,11.27
2023-07-04T00:29:09.022Z,15.68
2023-07-04T00:31:36.253Z,11.07
2023-07-04T00:34:03.520Z,19.83
2023-07-04T00:36:30.972Z,15.23
2023-07-04T00:38:59.167Z,13.25
2023-07-04T00:41:29.212Z,17.52
2023-07-04T00:44:10.137Z,17.48
2023-07-04T00:47:08.641Z,16.00
2023-07-04T00:49:44.231Z,12.23
2023-07-04T00:52:17.358Z,13.80
2023-07-04T00:54:54.331Z,17.27
2023-07-04T00:57:40.906Z,14.40
2023-07-04T01:00:18.906Z,15.05
2023-07-04T01:02:48.731Z,11.18
2023-07-04T01:05:29.850Z,15.43
2023-07-04T01:08:06.671Z,13.63
2023-07-04T01:10:48.080Z,14.55
2023-07-04T01:13:38.961Z,16.58
2023-07-04T01:16:13.029Z,9.48
2023-07-04T01:18:43.035Z,13.80
2023-07-04T01:21:13.353Z,12.40
2023-07-04T01:23:59.701Z,18.10
2023-07-04T01:26:43.408Z,13.45
2023-07-04T01:29:15.885Z,12.35
2023-07-04T01:31:45.480Z,14.60
2023-07-04T01:34:16.244Z,10.75
2023-07-04T01:36:45.764Z,15.30
2023-07-04T01:39:16.637Z,9.50
2023-07-04T01:41:47.041Z,11.67
2023-07-04T01:44:17.544Z,10.57
2023-07-04T01:46:45.392Z,11.25
2023-07-04T01:49:13.730Z,16.30
2023-07-04T01:51:42.646Z,12.73
2023-07-04T01:54:18.094Z,13.23
2023-07-04T01:56:49.199Z,11.05
2023-07-04T01:59:16.918Z,10.52
2023-07-04T02:01:44.581Z,11.07
2023-07-04T02:04:12.964Z,13.55
2023-07-04T02:06:40.418Z,13.05
2023-07-04T02:09:08.567Z,12.10
2023-07-04T02:11:38.089Z,13.05
2023-07-04T02:14:05.660Z,11.55
2023-07-04T02:16:33.308Z,12.20
2023-07-04T02:19:01.078Z,12.13
2023-07-04T02:21:28.508Z,11.45
2023-07-04T02:23:56.024Z,11.48
2023-07-04T02:26:23.870Z,11.27
2023-07-04T02:28:52.621Z,11.63
2023-07-04T02:31:21.814Z,14.20
2023-07-04T02:33:49.370Z,8.02
2023-07-04T02:36:17.468Z,13.20
2023-07-04T02:38:45.190Z,9.73
2023-07-04T02:41:12.796Z,8.98
2023-07-04T02:43:41.998Z,13.15
2023-07-04T02:46:09.894Z,9.20
2023-07-04T02:48:43.023Z,15.70
2023-07-04T02:51:11.592Z,11.07
2023-07-04T02:53:38.956Z,10.02
2023-07-04T02:56:06.357Z,11.68
2023-07-04T02:58:33.992Z,11.70
2023-07-04T03:01:04.779Z,13.93
2023-07-04T03:03:33.677Z,12.20
2023-07-04T03:06:06.272Z,13.82
2023-07-04T03:08:35.160Z,10.65
2023-07-04T03:11:03.711Z,9.02
2023-07-04T03:13:33.609Z,11.35
2023-07-04T03:16:01.925Z,14.70
2023-07-04T03:18:29.428Z,15.77
2023-07-04T03:20:56.974Z,16.30
2023-07-04T03:23:24.386Z,12.75
2023-07-04T03:25:52.481Z,10.27
2023-07-04T03:28:20.984Z,17.13
2023-07-04T03:30:48.752Z,17.17
2023-07-04T03:33:31.420Z,12.13
2023-07-04T03:36:01.039Z,8.68
2023-07-04T03:38:30.652Z,14.68
2023-07-04T03:41:00.345Z,14.48
2023-07-04T03:43:28.647Z,16.42
2023-07-04T03:45:55.908Z,13.10
2023-07-04T03:48:24.420Z,13.27
2023-07-04T03:50:52.748Z,17.27
2023-07-04T03:53:20.635Z,14.20
2023-07-04T03:55:50.171Z,19.05
2023-07-04T03:58:20.916Z,14.68
2023-07-04T04:00:48.715Z,14.45
2023-07-04T04:03:16.261Z,12.98
2023-07-04T04:05:44.433Z,12.70
2023-07-04T04:08:11.992Z,7.82
2023-07-04T04:10:39.700Z,12.35
2023-07-04T04:13:07.311Z,14.63
2023-07-04T04:15:34.788Z,13.77
2023-07-04T04:18:02.454Z,16.20
2023-07-04T04:20:30.656Z,14.50
2023-07-04T04:23:00.199Z,12.52
2023-07-04T04:25:27.753Z,10.35
2023-07-04T04:27:55.329Z,7.40
2023-07-04T04:30:22.857Z,9.38
2023-07-04T04:32:51.135Z,12.90
2023-07-04T04:35:18.486Z,9.63
2023-07-04T04:37:46.857Z,16.23
2023-07-04T04:40:14.439Z,12.40
2023-07-04T04:42:45.213Z,10.40
2023-07-04T04:45:13.201Z,8.18
2023-07-04T04:47:40.753Z,9.40
2023-07-04T04:50:08.714Z,9.52
2023-07-04T04:52:38.607Z,5.63
2023-07-04T04:55:07.186Z,10.27
2023-07-04T04:57:35.112Z,7.38
2023-07-04T05:00:02.743Z,7.47
2023-07-04T05:02:35.650Z,12.57
2023-07-04T05:05:04.097Z,9.20
2023-07-04T05:07:35.085Z,6.47
2023-07-04T05:10:04.066Z,10.45
2023-07-04T05:12:35.670Z,10.50
2023-07-04T05:15:06.043Z,9.60
2023-07-04T05:17:34.044Z,9.82
2023-07-04T05:20:01.978Z,6.60
2023-07-04T05:22:32.276Z,8.02
2023-07-04T05:24:59.828Z,10.30
2023-07-04T05:27:27.626Z,7.90
2023-07-04T05:29:54.987Z,13.32
2023-07-04T05:32:22.391Z,12.52
2023-07-04T05:34:50.218Z,10.05
2023-07-04T05:37:18.239Z,8.40
2023-07-04T05:39:45.961Z,14.40
2023-07-04T05:42:13.683Z,10.00
2023-07-04T05:44:41.324Z,9.68
2023-07-04T05:47:09.216Z,7.20
2023-07-04T05:49:36.722Z,12.75
2023-07-04T05:52:04.386Z,9.40
2023-07-04T05:54:31.886Z,8.00
2023-07-04T05:56:59.287Z,9.60
2023-07-04T05:59:26.835Z,8.85
2023-07-04T06:01:54.641Z,8.80
2023-07-04T06:04:22.530Z,7.82
2023-07-04T06:06:52.818Z,9.65
2023-07-04T06:09:23.946Z,13.60
2023-07-04T06:14:27.926Z,10.13
2023-07-04T06:16:59.156Z,14.45
2023-07-04T06:19:26.934Z,9.55
2023-07-04T06:21:54.517Z,8.23
2023-07-04T06:24:22.239Z,12.18
2023-07-04T06:26:50.655Z,10.52
2023-07-04T06:29:18.135Z,13.52
2023-07-04T06:31:45.661Z,10.50
2023-07-04T06:34:13.999Z,8.77
2023-07-04T06:36:43.561Z,7.70
2023-07-04T06:39:10.763Z,8.75
2023-07-04T06:41:38.245Z,8.45
2023-07-04T06:44:07.095Z,11.35
2023-07-04T06:46:34.597Z,7.20
2023-07-04T06:49:02.011Z,7.15
2023-07-04T06:51:35.276Z,7.63
2023-07-04T06:54:03.704Z,5.50
2023-07-04T06:56:32.445Z,12.32
2023-07-04T06:59:00.312Z,6.50
2023-07-04T07:01:28.980Z,7.82
2023-07-04T07:03:59.190Z,15.95
2023-07-04T07:06:28.180Z,8.43
2023-07-04T07:08:55.699Z,6.78
2023-07-04T07:11:23.479Z,5.88
2023-07-04T07:13:59.086Z,8.00
2023-07-04T07:16:27.315Z,7.10
2023-07-04T07:18:56.611Z,13.20
2023-07-04T07:21:26.325Z,6.63
2023-07-04T07:23:58.737Z,7.15
2023-07-04T07:26:29.081Z,6.55
2023-07-04T07:28:59.153Z,9.40
2023-07-04T07:31:33.519Z,9.50
2023-07-04T07:34:05.777Z,4.95
2023-07-04T07:36:40.891Z,15.48
2023-07-04T07:39:12.931Z,7.38
2023-07-04T07:41:43.313Z,11.57
2023-07-04T07:44:17.446Z,7.47
2023-07-04T07:46:46.188Z,7.00
2023-07-04T07:49:13.685Z,9.50
2023-07-04T07:51:43.903Z,10.73
2023-07-04T07:54:12.142Z,6.63
2023-07-04T07:56:42.538Z,13.05
2023-07-04T07:59:16.627Z,8.20
2023-07-04T08:01:47.582Z,16.25
2023-07-04T08:04:20.159Z,6.05
2023-07-04T08:06:48.211Z,10.98
2023-07-04T08:09:18.264Z,9.65
2023-07-04T08:11:52.791Z,7.18
2023-07-04T08:14:21.364Z,8.13
2023-07-04T08:16:51.718Z,6.95
2023-07-04T08:19:21.267Z,8.30
2023-07-04T08:21:48.997Z,6.28
2023-07-04T08:24:17.789Z,9.27
2023-07-04T08:26:47.802Z,9.30
2023-07-04T08:29:21.486Z,6.55
2023-07-04T08:31:48.943Z,10.57
2023-07-04T08:34:16.712Z,7.47
2023-07-04T08:36:45.937Z,8.65
2023-07-04T08:39:15.534Z,10.02
2023-07-04T08:42:04.331Z,7.38
2023-07-04T08:44:46.727Z,10.73
2023-07-04T08:47:27.056Z,9.52
2023-07-04T08:50:03.339Z,7.72
2023-07-04T08:52:42.983Z,11.95
2023-07-04T08:55:14.427Z,8.48
2023-07-04T08:57:51.589Z,7.00
2023-07-04T09:00:29.527Z,5.97
2023-07-04T09:03:04.188Z,8.95
2023-07-04T09:05:49.587Z,7.05
2023-07-04T09:08:51.037Z,8.52
2023-07-04T09:11:19.521Z,9.02
2023-07-04T09:14:05.879Z,5.53
2023-07-04T09:16:39.454Z,8.43
2023-07-04T09:19:10.270Z,7.07
2023-07-04T09:21:40.635Z,9.90
2023-07-04T09:24:08.981Z,7.32
2023-07-04T09:26:46.231Z,6.72
2023-07-04T09:29:17.353Z,7.07
2023-07-04T09:31:48.073Z,7.03
2023-07-04T09:34:34.492Z,13.07
2023-07-04T09:37:11.971Z,9.25
2023-07-04T09:42:30.470Z,7.85
2023-07-04T09:45:12.691Z,8.15
2023-07-04T09:47:46.104Z,7.40
2023-07-04T09:50:32.544Z,7.80
2023-07-04T09:53:11.081Z,8.38
2023-07-04T09:55:40.921Z,8.07
2023-07-04T09:58:18.927Z,6.53
2023-07-04T10:01:00.806Z,7.47
2023-07-04T10:03:28.790Z,6.35
2023-07-04T10:05:56.489Z,5.38
2023-07-04T10:08:24.076Z,7.13
2023-07-04T10:10:57.637Z,6.60
2023-07-04T10:13:39.537Z,7.43
2023-07-04T10:16:21.948Z,5.88
2023-07-04T10:18:49.451Z,9.07
2023-07-04T10:21:20.408Z,7.75
2023-07-04T10:23:48.244Z,6.45
2023-07-04T10:26:16.908Z,14.32
2023-07-04T10:28:44.800Z,6.13
2023-07-04T10:31:17.618Z,6.57
2023-07-04T10:33:48.889Z,15.55
2023-07-04T10:36:23.475Z,7.77
2023-07-04T10:38:59.148Z,10.05
2023-07-04T10:41:50.157Z,7.43
2023-07-04T10:44:30.762Z,11.48
2023-07-04T10:47:03.577Z,7.85
2023-07-04T10:49:54.765Z,5.35
2023-07-04T10:52:33.384Z,6.53
2023-07-04T10:55:02.437Z,5.72
2023-07-04T10:57:44.925Z,7.88
2023-07-04T11:00:35.949Z,8.40
2023-07-04T11:03:12.725Z,7.80
2023-07-04T11:05:48.158Z,8.25
2023-07-04T11:08:19.357Z,11.73
2023-07-04T11:10:52.520Z,11.18
2023-07-04T11:13:22.480Z,8.55
2023-07-04T11:15:57.446Z,7.30
2023-07-04T11:18:28.450Z,13.77
2023-07-04T11:21:16.568Z,5.75
2023-07-04T11:23:54.957Z,10.48
2023-07-04T11:26:51.303Z,6.35
2023-07-04T11:29:22.293Z,6.53
2023-07-04T11:32:03.515Z,7.57
2023-07-04T11:34:44.488Z,6.95
2023-07-04T11:37:16.296Z,7.10
2023-07-04T11:39:48.217Z,8.20
2023-07-04T11:44:58.160Z,6.25
2023-07-04T11:47:48.627Z,8.40
2023-07-04T11:50:22.378Z,7.35
2023-07-04T11:52:57.499Z,10.32
2023-07-04T11:55:33.047Z,8.82
2023-07-04T11:58:02.875Z,12.73
2023-07-04T12:00:31.393Z,5.93
2023-07-04T12:03:20.731Z,8.85
2023-07-04T12:05:51.009Z,10.60
2023-07-04T12:08:25.653Z,6.00
2023-07-04T12:10:58.386Z,5.93
2023-07-04T12:13:33.457Z,5.53
2023-07-04T12:16:01.441Z,5.88
2023-07-04T12:18:40.111Z,6.00
2023-07-04T12:21:09.293Z,6.57
2023-07-04T12:23:39.305Z,6.40
2023-07-04T12:26:07.962Z,9.52
2023-07-04T12:28:35.271Z,7.22
2023-07-04T12:33:45.546Z,7.20
2023-07-04T12:36:20.730Z,10.68
2023-07-04T12:38:52.008Z,8.55
2023-07-04T12:41:23.891Z,6.40
2023-07-04T12:51:43.043Z,6.43
2023-07-04T12:54:12.486Z,6.97
2023-07-04T12:56:45.544Z,8.30
2023-07-04T12:59:34.055Z,10.35
2023-07-04T13:02:12.724Z,7.38
2023-07-04T13:04:40.403Z,9.90
2023-07-04T13:07:08.740Z,6.93
2023-07-04T13:09:36.289Z,8.13
2023-07-04T13:12:03.771Z,10.23
2023-07-04T13:14:31.581Z,4.63
2023-07-04T13:17:11.103Z,6.55
2023-07-04T13:19:44.850Z,9.25
2023-07-04T13:22:18.082Z,5.53
2023-07-04T13:27:25.122Z,6.82
2023-07-04T13:35:35.042Z,12.30
2023-07-04T13:40:35.327Z,6.95
2023-07-04T13:45:48.296Z,8.77
2023-07-04T13:48:16.021Z,6.70
2023-07-04T13:50:43.190Z,5.28
2023-07-04T13:53:15.065Z,6.50
2023-07-04T13:55:47.408Z,6.88
2023-07-04T13:58:15.292Z,9.45
2023-07-04T14:05:50.095Z,7.35
2023-07-04T14:08:21.574Z,5.05
2023-07-04T14:10:48.775Z,8.90
2023-07-04T14:13:16.209Z,6.78
2023-07-04T14:20:44.859Z,7.43
2023-07-04T14:23:12.448Z,9.57
2023-07-04T14:25:39.910Z,10.60
2023-07-04T14:28:07.295Z,10.25
2023-07-04T14:30:35.147Z,7.82
2023-07-04T14:33:02.527Z,6.53
2023-07-04T14:35:30.016Z,7.40
2023-07-04T14:38:00.302Z,8.15
2023-07-04T14:43:01.730Z,6.32
2023-07-04T14:45:29.260Z,7.28
2023-07-04T14:47:56.799Z,10.23
2023-07-04T14:50:24.946Z,11.75
2023-07-04T14:52:53.063Z,7.45
2023-07-04T14:55:21.549Z,9.23
2023-07-04T14:57:49.469Z,8.40
2023-07-04T15:00:21.467Z,13.25
2023-07-04T15:02:49.832Z,9.55
2023-07-04T15:05:17.583Z,6.13
2023-07-04T15:07:45.216Z,10.13
2023-07-04T15:10:12.764Z,6.90
2023-07-04T15:12:40.418Z,7.38
2023-07-04T15:15:08.364Z,10.55
2023-07-04T15:17:35.785Z,6.78
2023-07-04T15:20:03.602Z,7.85
2023-07-04T15:22:31.197Z,7.32
2023-07-04T15:24:58.934Z,6.57
2023-07-04T15:27:26.363Z,9.25
2023-07-04T15:29:53.793Z,8.00
2023-07-04T15:32:21.099Z,7.93
2023-07-04T15:34:50.106Z,7.43
2023-07-04T15:37:25.739Z,10.43
2023-07-04T15:39:53.357Z,8.63
2023-07-04T15:42:20.754Z,8.30
2023-07-04T15:44:48.183Z,6.90
2023-07-04T15:47:16.277Z,9.32
2023-07-04T15:49:43.938Z,7.43
2023-07-04T15:52:11.295Z,8.73
2023-07-04T15:54:38.870Z,8.98
2023-07-04T15:57:06.671Z,5.90
2023-07-04T15:59:35.275Z,12.70
2023-07-04T16:02:02.936Z,8.15
2023-07-04T16:04:30.583Z,8.65
2023-07-04T16:06:58.897Z,14.02
2023-07-04T16:09:26.403Z,9.27
2023-07-04T16:11:54.053Z,8.45
2023-07-04T16:14:21.688Z,12.88
2023-07-04T16:16:48.912Z,8.75
2023-07-04T16:19:16.233Z,5.90
2023-07-04T16:21:44.858Z,10.80
2023-07-04T16:24:12.220Z,8.13
2023-07-04T16:26:39.781Z,8.73
2023-07-04T16:29:07.277Z,7.07
2023-07-04T16:31:34.468Z,8.10
2023-07-04T16:34:02.124Z,7.30
2023-07-04T16:36:29.560Z,6.65
2023-07-04T16:38:56.910Z,8.55
2023-07-04T16:41:24.560Z,9.98
2023-07-04T16:43:51.911Z,7.13
2023-07-04T16:46:19.664Z,7.90
2023-07-04T16:48:46.913Z,12.93
2023-07-04T16:51:14.677Z,9.40
2023-07-04T16:53:41.920Z,6.95
2023-07-04T16:56:09.526Z,7.50
2023-07-04T16:58:37.650Z,12.15
2023-07-04T17:01:04.986Z,8.32
2023-07-04T17:03:33.424Z,9.52
2023-07-04T17:06:09.770Z,9.98
2023-07-04T17:08:38.517Z,10.07
2023-07-04T17:11:08.465Z,10.60
2023-07-04T17:13:39.940Z,5.57
2023-07-04T17:16:11.754Z,9.93
2023-07-04T17:18:39.901Z,10.57
2023-07-04T17:21:09.068Z,6.90
2023-07-04T17:23:36.923Z,10.52
2023-07-04T17:26:04.775Z,11.07
2023-07-04T17:28:32.076Z,8.43
2023-07-04T17:31:04.445Z,13.02
2023-07-04T17:36:09.006Z,11.45
2023-07-04T17:38:37.650Z,7.75
2023-07-04T17:41:16.578Z,12.65
2023-07-04T17:43:45.615Z,15.25
2023-07-04T17:46:14.050Z,13.43
2023-07-04T17:48:45.006Z,11.38
2023-07-04T17:51:16.863Z,16.40
2023-07-04T17:53:44.549Z,12.90
2023-07-04T17:56:15.255Z,16.40
2023-07-04T17:58:42.867Z,13.48
2023-07-04T18:01:17.410Z,16.77
2023-07-04T18:03:46.437Z,15.80
2023-07-04T18:06:16.951Z,17.10
2023-07-04T18:08:44.828Z,12.18
2023-07-04T18:11:24.715Z,16.83
2023-07-04T18:13:55.478Z,14.95
2023-07-04T18:16:23.353Z,16.15
2023-07-04T18:18:50.691Z,14.55
2023-07-04T18:21:20.811Z,14.55
2023-07-04T18:23:53.654Z,14.25
2023-07-04T18:26:22.266Z,11.63
2023-07-04T18:28:51.077Z,15.57
2023-07-04T18:31:21.352Z,12.90
2023-07-04T18:33:49.157Z,18.30
2023-07-04T18:36:20.822Z,11.30
2023-07-04T18:38:48.957Z,19.48
2023-07-04T18:41:18.990Z,14.85
2023-07-04T18:43:46.746Z,12.43
2023-07-04T18:46:41.203Z,16.98
2023-07-04T18:49:09.261Z,14.82
2023-07-04T18:51:40.468Z,16.95
2023-07-04T18:54:12.136Z,20.13
2023-07-04T18:56:42.206Z,18.80
2023-07-04T18:59:12.028Z,12.60
2023-07-04T19:01:39.855Z,22.77
2023-07-04T19:04:07.426Z,17.58
2023-07-04T19:06:37.100Z,14.95
2023-07-04T19:09:05.865Z,16.88
2023-07-04T19:11:40.241Z,15.60
2023-07-04T19:14:18.982Z,19.52
2023-07-04T19:16:53.232Z,19.92
2023-07-04T19:19:29.940Z,18.20
2023-07-04T19:21:59.952Z,17.70
2023-07-04T19:24:29.755Z,25.92
2023-07-04T19:26:57.756Z,17.30
2023-07-04T19:29:26.673Z,20.73
2023-07-04T19:31:56.702Z,18.45
2023-07-04T19:34:25.418Z,17.98
2023-07-04T19:36:58.532Z,28.10
2023-07-04T19:39:27.939Z,22.05
2023-07-04T19:41:55.451Z,19.95
2023-07-04T19:44:25.150Z,18.17
2023-07-04T19:46:52.783Z,20.17
2023-07-04T19:49:20.541Z,20.92
2023-07-04T19:51:48.161Z,24.95
2023-07-04T19:54:15.615Z,15.88
2023-07-04T19:56:43.115Z,16.95
2023-07-04T19:59:11.098Z,16.13
2023-07-04T20:01:40.420Z,19.60
2023-07-04T20:04:07.991Z,19.52
2023-07-04T20:06:36.479Z,18.15
2023-07-04T20:09:04.252Z,21.45
2023-07-04T20:11:31.616Z,23.08
2023-07-04T20:13:59.514Z,17.45
2023-07-04T20:16:30.683Z,19.30
2023-07-04T20:18:59.418Z,24.13
2023-07-04T20:21:28.267Z,19.23
2023-07-04T20:23:55.856Z,16.10
2023-07-04T20:26:23.508Z,16.05
2023-07-04T20:28:51.081Z,22.92
2023-07-04T20:31:18.766Z,18.08
2023-07-04T20:33:46.362Z,22.60
2023-07-04T20:36:13.928Z,23.48
2023-07-04T20:38:41.787Z,19.23
2023-07-04T20:41:11.140Z,20.88
2023-07-04T20:43:38.828Z,21.88
2023-07-04T20:46:06.652Z,20.70
2023-07-04T20:48:37.532Z,20.63
2023-07-04T20:51:09.133Z,20.85
2023-07-04T20:53:45.325Z,18.60
2023-07-04T20:56:14.144Z,20.83
2023-07-04T20:58:41.662Z,20.58
2023-07-04T21:01:10.641Z,20.00
2023-07-04T21:03:38.220Z,19.60
2023-07-04T21:06:06.904Z,21.80
2023-07-04T21:08:35.350Z,19.25
2023-07-04T21:11:06.860Z,24.67
2023-07-04T21:13:39.514Z,18.20
2023-07-04T21:16:11.139Z,21.13
2023-07-04T21:18:39.439Z,28.92
2023-07-04T21:21:07.355Z,16.48
2023-07-04T21:23:36.621Z,20.95
2023-07-04T21:26:07.707Z,22.17
2023-07-04T21:28:39.076Z,22.15
2023-07-04T21:31:08.672Z,18.15
2023-07-04T21:33:37.073Z,23.30
2023-07-04T21:36:05.292Z,23.20
2023-07-04T21:38:38.289Z,21.77
2023-07-04T21:41:07.444Z,22.00
2023-07-04T21:43:35.288Z,21.35
2023-07-04T21:46:06.837Z,21.63
2023-07-04T21:48:35.022Z,21.75
2023-07-04T21:51:06.942Z,16.38
2023-07-04T21:53:34.564Z,19.90
2023-07-04T21:56:03.004Z,17.52
2023-07-04T21:58:31.094Z,19.20
2023-07-04T22:01:03.447Z,21.55
2023-07-04T22:03:32.940Z,23.45
2023-07-04T22:06:09.255Z,25.60
2023-07-04T22:08:41.264Z,23.02
2023-07-04T22:11:11.927Z,20.13
2023-07-04T22:13:45.385Z,24.48
2023-07-04T22:16:15.298Z,22.08
2023-07-04T22:18:42.950Z,26.15
2023-07-04T22:21:12.206Z,22.15
2023-07-04T22:23:40.833Z,23.30
2023-07-04T22:26:09.680Z,27.27
2023-07-04T22:28:37.940Z,24.38
2023-07-04T22:31:08.261Z,17.10
2023-07-04T22:33:43.602Z,26.27
2023-07-04T22:36:15.379Z,23.40
2023-07-04T22:38:46.628Z,20.73
2023-07-04T22:41:14.039Z,17.58
2023-07-04T22:43:41.727Z,17.27
2023-07-04T22:46:10.941Z,20.90
2023-07-04T22:48:38.340Z,26.95
2023-07-04T22:51:05.746Z,22.38
2023-07-04T22:53:33.183Z,21.20
2023-07-04T22:56:06.350Z,23.95
2023-07-04T22:58:35.549Z,20.42
2023-07-04T23:01:12.518Z,25.55
2023-07-04T23:03:40.644Z,26.60
2023-07-04T23:06:09.646Z,17.80
2023-07-04T23:08:37.384Z,25.98
2023-07-04T23:11:04.768Z,18.15
2023-07-04T23:13:32.403Z,20.52
2023-07-04T23:16:04.049Z,18.20
2023-07-04T23:18:31.581Z,22.00
2023-07-04T23:20:59.219Z,21.75
2023-07-04T23:23:26.859Z,22.33
2023-07-04T23:25:54.427Z,26.33
2023-07-04T23:28:22.570Z,18.88
2023-07-04T23:30:49.932Z,20.58
2023-07-04T23:33:17.739Z,23.35
2023-07-04T23:35:55.981Z,25.13
2023-07-04T23:38:23.228Z,24.80
2023-07-04T23:40:51.492Z,26.90
2023-07-04T23:43:19.064Z,21.38
2023-07-04T23:45:46.590Z,20.90
2023-07-04T23:48:14.587Z,24.38
2023-07-04T23:50:42.393Z,22.10
2023-07-04T23:53:09.738Z,19.83
2023-07-04T23:55:37.119Z,25.13
2023-07-04T23:58:04.847Z,27.88
